Time;durP1;ratioP1;P1;durP2;ratioP2;P2;SDS_P1;SDS_P2;PMS_P1;PMS_P2;Temp;Humidity;BMP_temperature;BMP_pressure;BME280_temperature;BME280_humidity;BME280_pressure;Samples;Min_cycle;Max_cycle;Signal;HPM_P1;HPM_P2
2022/07/24 00:05:01;;;;;;;2.35;0.88;;;21.40;97.30;;;;;;10283555;28;20046;-61
2022/07/24 00:10:04;;;;;;;1.95;0.65;;;21.30;97.70;;;;;;10287298;28;20054;-61
2022/07/24 00:15:07;;;;;;;0.80;0.60;;;21.20;97.90;;;;;;10283772;28;20053;-61
2022/07/24 00:20:10;;;;;;;1.98;0.60;;;21.20;98.60;;;;;;10295515;28;20413;-61
2022/07/24 00:25:12;;;;;;;1.48;0.70;;;21.10;98.80;;;;;;10301495;28;20054;-61
2022/07/24 00:30:14;;;;;;;1.58;0.65;;;20.90;99.10;;;;;;10282755;28;20051;-61
2022/07/24 00:35:17;;;;;;;2.30;0.88;;;20.90;99.50;;;;;;10275324;28;20061;-61
2022/07/24 00:40:19;;;;;;;1.38;0.93;;;20.80;99.90;;;;;;10287685;28;20055;-61
2022/07/24 00:45:21;;;;;;;1.75;0.80;;;20.70;99.90;;;;;;10297915;28;20097;-62
2022/07/24 00:50:27;;;;;;;2.90;0.75;;;20.60;99.90;;;;;;10294696;28;20054;-61
2022/07/24 00:55:28;;;;;;;1.30;0.90;;;20.50;99.90;;;;;;10281286;28;20444;-62
2022/07/24 01:00:30;;;;;;;4.05;0.90;;;20.40;99.90;;;;;;10307822;28;20061;-62
2022/07/24 01:05:32;;;;;;;4.07;0.80;;;20.30;99.90;;;;;;10280241;28;20054;-61
2022/07/24 01:10:34;;;;;;;1.70;0.80;;;20.20;99.90;;;;;;10291892;28;20421;-60
2022/07/24 01:15:36;;;;;;;4.43;1.10;;;20.10;99.90;;;;;;10286637;28;20049;-61
2022/07/24 01:20:38;;;;;;;6.38;0.88;;;20.00;99.90;;;;;;10278465;28;20437;-61
2022/07/24 01:25:41;;;;;;;1.75;0.60;;;20.00;99.90;;;;;;10292341;28;20067;-61
2022/07/24 01:30:43;;;;;;;1.85;0.90;;;19.90;99.90;;;;;;10286197;28;20385;-61
2022/07/24 01:35:45;;;;;;;3.85;1.08;;;19.80;99.90;;;;;;10293197;28;20057;-61
2022/07/24 01:40:47;;;;;;;2.20;0.90;;;19.80;99.90;;;;;;10280930;28;20058;-61
2022/07/24 01:45:49;;;;;;;3.90;0.88;;;19.70;99.90;;;;;;10292839;28;20066;-62
2022/07/24 01:50:51;;;;;;;2.25;0.88;;;19.70;99.90;;;;;;10299414;28;20053;-61
2022/07/24 01:55:53;;;;;;;2.55;0.90;;;19.70;99.90;;;;;;10279808;28;20056;-61
2022/07/24 02:00:55;;;;;;;3.25;0.85;;;19.70;99.90;;;;;;10274235;28;20074;-61
2022/07/24 02:05:56;;;;;;;3.50;1.23;;;19.70;99.90;;;;;;10295958;28;20097;-60
2022/07/24 02:10:58;;;;;;;6.85;1.40;;;19.70;99.90;;;;;;10289428;28;20050;-60
2022/07/24 02:16:00;;;;;;;2.35;1.00;;;19.80;99.90;;;;;;10280080;28;20054;-61
2022/07/24 02:21:02;;;;;;;1.38;0.68;;;19.70;99.90;;;;;;10307063;28;20084;-61
2022/07/24 02:26:04;;;;;;;2.33;0.88;;;19.60;99.90;;;;;;10281361;28;20043;-61
2022/07/24 02:31:06;;;;;;;2.55;1.63;;;19.50;99.90;;;;;;10317642;28;20042;-61
2022/07/24 02:36:08;;;;;;;6.78;0.88;;;19.50;99.90;;;;;;10285680;28;20052;-62
2022/07/24 02:41:10;;;;;;;3.95;1.38;;;19.40;99.90;;;;;;10299073;28;20046;-63
2022/07/24 02:46:11;;;;;;;1.52;1.10;;;19.30;99.90;;;;;;10308947;28;20078;-62
2022/07/24 02:51:13;;;;;;;3.30;1.00;;;19.20;99.90;;;;;;10301830;28;20052;-62
2022/07/24 02:56:15;;;;;;;2.78;0.90;;;19.10;99.90;;;;;;10309449;28;20062;-62
2022/07/24 03:01:17;;;;;;;2.60;1.00;;;19.00;99.90;;;;;;10294935;28;20069;-61
2022/07/24 03:06:18;;;;;;;1.60;1.35;;;18.80;99.90;;;;;;10298264;28;20434;-61
2022/07/24 03:11:20;;;;;;;3.33;1.00;;;18.60;99.90;;;;;;10275134;28;20053;-61
2022/07/24 03:16:22;;;;;;;1.50;1.10;;;18.50;99.90;;;;;;10280517;28;20109;-61
2022/07/24 03:21:24;;;;;;;1.50;1.05;;;18.50;99.90;;;;;;10290862;28;20722;-61
2022/07/24 03:26:45;;;;;;;2.65;0.90;;;18.50;99.90;;;;;;10293197;28;20509;-61
2022/07/24 03:31:47;;;;;;;2.13;1.25;;;18.50;99.90;;;;;;10287170;28;20051;-60
2022/07/24 03:36:49;;;;;;;3.22;1.00;;;18.40;99.90;;;;;;10289126;28;20052;-62
2022/07/24 03:41:51;;;;;;;2.78;1.15;;;18.30;99.90;;;;;;10279667;28;20050;-65
2022/07/24 03:46:52;;;;;;;3.17;0.95;;;18.30;99.90;;;;;;10286180;28;20065;-65
2022/07/24 03:51:54;;;;;;;2.35;1.45;;;18.30;99.90;;;;;;10289366;28;20062;-65
2022/07/24 03:56:56;;;;;;;4.88;1.23;;;18.30;99.90;;;;;;10304633;28;20455;-66
2022/07/24 04:01:58;;;;;;;3.45;1.30;;;18.30;99.90;;;;;;10287573;28;20050;-65
2022/07/24 04:06:59;;;;;;;2.65;1.17;;;18.30;99.90;;;;;;10296773;28;20086;-65
2022/07/24 04:12:01;;;;;;;4.78;1.83;;;18.20;99.90;;;;;;10279804;28;20038;-65
2022/07/24 04:17:03;;;;;;;3.92;1.75;;;18.30;99.90;;;;;;10284725;28;20065;-65
2022/07/24 04:22:05;;;;;;;4.25;1.35;;;18.10;99.90;;;;;;10299662;28;20050;-65
2022/07/24 04:27:07;;;;;;;4.07;1.88;;;18.20;99.90;;;;;;10291591;28;20042;-65
2022/07/24 04:32:08;;;;;;;3.08;1.85;;;18.20;99.90;;;;;;10296763;28;20497;-65
2022/07/24 04:37:10;;;;;;;2.67;1.50;;;18.10;99.90;;;;;;10288621;28;20099;-65
2022/07/24 04:42:12;;;;;;;2.40;1.50;;;17.90;99.90;;;;;;10278288;28;20133;-64
2022/07/24 04:47:14;;;;;;;2.00;1.45;;;17.90;99.90;;;;;;10261270;28;20409;-65
2022/07/24 04:52:15;;;;;;;3.10;1.73;;;17.90;99.90;;;;;;10292206;28;20555;-65
2022/07/24 04:57:17;;;;;;;3.40;2.40;;;17.90;99.90;;;;;;10296556;28;20042;-65
2022/07/24 05:02:19;;;;;;;6.65;2.10;;;17.90;99.90;;;;;;10284430;28;20047;-66
2022/07/24 05:07:21;;;;;;;4.90;1.60;;;18.00;99.90;;;;;;10279912;28;20165;-66
2022/07/24 05:12:23;;;;;;;2.85;1.70;;;18.00;99.90;;;;;;10255892;28;20406;-63
2022/07/24 05:17:24;;;;;;;3.38;2.05;;;18.10;99.90;;;;;;10252398;28;20050;-63
2022/07/24 05:22:26;;;;;;;8.18;2.08;;;18.20;99.90;;;;;;10243005;28;20062;-63
2022/07/24 05:27:28;;;;;;;4.20;1.98;;;18.30;99.90;;;;;;10256233;28;20050;-64
2022/07/24 05:32:30;;;;;;;4.50;1.52;;;18.40;99.90;;;;;;10248803;28;20113;-65
2022/07/24 05:37:31;;;;;;;5.53;2.00;;;18.50;99.90;;;;;;10247741;28;20058;-66
2022/07/24 05:42:33;;;;;;;3.22;1.20;;;18.70;99.90;;;;;;10254464;28;20051;-64
2022/07/24 05:47:39;;;;;;;2.67;1.40;;;18.80;99.90;;;;;;10255829;28;20051;-65
2022/07/24 05:52:41;;;;;;;1.83;1.02;;;19.00;99.90;;;;;;10238211;28;20031;-64
2022/07/24 05:57:43;;;;;;;1.55;1.25;;;19.10;99.90;;;;;;10251501;28;20047;-64
2022/07/24 06:02:46;;;;;;;2.13;1.48;;;19.20;99.90;;;;;;10264308;28;20494;-64
2022/07/24 06:07:47;;;;;;;3.17;1.55;;;19.40;99.90;;;;;;10283307;28;20512;-65
2022/07/24 06:12:49;;;;;;;2.25;1.58;;;19.70;99.90;;;;;;10304439;28;20105;-65
2022/07/24 06:17:51;;;;;;;1.52;1.05;;;19.90;99.90;;;;;;10310795;28;20105;-65
2022/07/24 06:22:53;;;;;;;3.10;1.35;;;20.00;99.90;;;;;;10321080;28;20413;-66
2022/07/24 06:27:55;;;;;;;3.13;1.23;;;20.20;99.90;;;;;;10303020;28;20057;-65
2022/07/24 06:32:59;;;;;;;2.78;1.20;;;20.40;99.90;;;;;;10294537;28;20046;-65
2022/07/24 06:38:01;;;;;;;2.22;1.02;;;20.60;99.90;;;;;;10306420;28;20073;-64
2022/07/24 06:43:03;;;;;;;7.13;1.40;;;20.70;99.90;;;;;;10305440;28;20481;-64
2022/07/24 06:48:05;;;;;;;2.53;1.20;;;21.00;99.90;;;;;;10282418;28;20498;-65
2022/07/24 06:53:07;;;;;;;1.77;0.73;;;21.20;99.90;;;;;;10286668;28;20050;-65
2022/07/24 06:58:09;;;;;;;1.20;0.90;;;21.40;99.90;;;;;;10292230;28;20050;-64
2022/07/24 07:03:10;;;;;;;2.60;1.15;;;21.50;99.90;;;;;;10291546;28;20049;-65
2022/07/24 07:08:12;;;;;;;1.95;0.80;;;21.60;99.90;;;;;;10297891;28;20106;-65
2022/07/24 07:13:15;;;;;;;2.15;0.88;;;21.90;99.90;;;;;;10294163;28;21891;-65
2022/07/24 07:18:16;;;;;;;1.55;0.85;;;22.10;99.90;;;;;;10280243;28;20069;-65
2022/07/24 07:23:18;;;;;;;2.45;0.88;;;22.30;99.90;;;;;;10278476;28;20400;-65
2022/07/24 07:28:20;;;;;;;0.90;0.80;;;22.50;99.90;;;;;;10304048;28;20046;-64
2022/07/24 07:33:22;;;;;;;2.30;0.75;;;22.60;99.90;;;;;;10300940;28;20531;-64
2022/07/24 07:38:23;;;;;;;1.98;1.10;;;22.70;99.90;;;;;;10304128;28;20039;-64
2022/07/24 07:43:27;;;;;;;4.35;0.90;;;22.70;99.90;;;;;;10280320;28;20065;-64
2022/07/24 07:48:30;;;;;;;5.05;1.05;;;22.90;99.90;;;;;;10299363;28;20046;-65
2022/07/24 07:53:32;;;;;;;2.00;0.98;;;23.10;99.90;;;;;;10287218;28;20053;-64
2022/07/24 07:58:34;;;;;;;0.90;0.70;;;23.20;99.90;;;;;;10281757;28;20051;-64
2022/07/24 08:03:36;;;;;;;1.70;1.08;;;23.40;99.90;;;;;;10306227;28;20054;-64
2022/07/24 08:08:38;;;;;;;2.53;0.82;;;23.50;99.90;;;;;;10282938;28;20042;-64
2022/07/24 08:13:40;;;;;;;1.60;1.05;;;23.60;99.90;;;;;;10269037;28;20109;-63
2022/07/24 08:18:42;;;;;;;1.40;1.00;;;23.80;99.90;;;;;;10273239;28;20553;-64
2022/07/24 08:23:49;;;;;;;4.40;0.90;;;24.00;99.90;;;;;;10253662;28;20054;-63
2022/07/24 08:28:51;;;;;;;3.40;0.93;;;24.20;99.70;;;;;;10273426;28;20050;-64
2022/07/24 08:33:52;;;;;;;1.75;1.15;;;24.40;99.90;;;;;;10264462;28;20066;-64
2022/07/24 08:38:54;;;;;;;2.20;1.08;;;24.40;98.30;;;;;;10261575;28;20050;-64
2022/07/24 08:43:56;;;;;;;3.03;0.90;;;24.70;98.70;;;;;;10246545;28;20396;-63
2022/07/24 08:48:58;;;;;;;2.95;0.80;;;25.00;98.80;;;;;;10260078;28;20069;-63
2022/07/24 08:54:02;;;;;;;1.52;0.77;;;25.10;98.10;;;;;;10269363;28;20066;-64
2022/07/24 08:59:03;;;;;;;1.10;1.00;;;25.40;97.40;;;;;;10267168;28;20054;-63
2022/07/24 09:04:05;;;;;;;2.78;1.10;;;25.60;97.20;;;;;;10268709;28;20096;-65
2022/07/24 09:09:07;;;;;;;3.60;1.08;;;25.70;96.30;;;;;;10288175;28;20065;-62
2022/07/24 09:19:44;;;;;;;1.95;1.05;;;26.20;95.10;;;;;;10294687;28;20396;-63
2022/07/24 09:24:46;;;;;;;3.80;1.23;;;26.30;93.50;;;;;;10289860;28;20055;-64
2022/07/24 09:29:48;;;;;;;1.92;1.48;;;26.60;93.90;;;;;;10274537;28;20069;-63
2022/07/24 09:34:52;;;;;;;1.65;1.23;;;26.80;93.60;;;;;;10278578;28;20058;-63
2022/07/24 09:40:06;;;;;;;3.42;1.17;;;27.00;93.00;;;;;;10287216;28;20047;-64
2022/07/24 09:45:10;;;;;;;2.65;1.20;;;27.10;91.40;;;;;;10273206;28;20490;-64
2022/07/24 09:50:16;;;;;;;2.13;1.00;;;27.40;91.50;;;;;;10274645;28;20087;-64
2022/07/24 09:55:24;;;;;;;1.67;1.13;;;27.30;89.00;;;;;;10281939;28;20045;-64
2022/07/24 10:00:26;;;;;;;2.70;1.20;;;27.30;87.00;;;;;;10280054;28;20493;-65
2022/07/24 10:05:31;;;;;;;2.20;1.10;;;27.60;86.20;;;;;;10287194;28;20054;-64
2022/07/24 10:10:34;;;;;;;1.75;1.17;;;27.70;87.00;;;;;;10274610;28;20050;-65
2022/07/24 10:15:46;;;;;;;3.55;1.05;;;28.00;88.70;;;;;;10285229;28;20405;-65
2022/07/24 10:20:48;;;;;;;2.92;1.20;;;28.20;86.70;;;;;;10286355;28;20416;-65
2022/07/24 10:26:05;;;;;;;2.83;1.20;;;28.50;83.70;;;;;;10286666;28;20046;-64
2022/07/24 10:31:13;;;;;;;1.17;1.02;;;28.50;84.70;;;;;;10295030;28;20046;-65
2022/07/24 10:36:27;;;;;;;3.97;1.40;;;28.80;84.10;;;;;;10281417;28;20069;-64
2022/07/24 10:41:31;;;;;;;4.57;1.25;;;29.10;82.80;;;;;;10278310;28;20050;-65
2022/07/24 10:47:02;;;;;;;2.40;1.10;;;29.40;82.50;;;;;;10295531;28;20062;-64
2022/07/24 10:52:04;;;;;;;1.52;1.10;;;29.60;81.30;;;;;;10303435;28;20053;-64
2022/07/24 10:57:05;;;;;;;1.98;1.02;;;29.90;78.80;;;;;;10298329;28;20081;-64
2022/07/24 11:02:27;;;;;;;2.47;1.60;;;30.00;76.30;;;;;;10297789;28;20047;-64
2022/07/24 11:07:29;;;;;;;1.38;1.23;;;30.00;75.70;;;;;;10300658;28;20061;-64
2022/07/24 11:12:32;;;;;;;3.67;1.45;;;29.90;74.90;;;;;;10313904;28;20054;-63
2022/07/24 11:17:44;;;;;;;2.47;1.63;;;30.20;73.00;;;;;;10296527;28;20053;-63
2022/07/24 11:22:54;;;;;;;2.97;1.27;;;30.40;72.60;;;;;;10306245;28;20129;-64
2022/07/24 11:27:58;;;;;;;1.60;1.17;;;30.70;72.70;;;;;;10282914;28;20053;-63
2022/07/24 11:33:00;;;;;;;3.72;1.60;;;31.00;72.10;;;;;;10284665;28;20051;-63
2022/07/24 11:38:05;;;;;;;2.50;1.55;;;31.30;72.40;;;;;;10278075;28;20054;-64
2022/07/24 11:43:09;;;;;;;;;;;31.30;68.10;;;;;;10303602;28;20046;-64
2022/07/24 11:48:19;;;;;;;2.67;1.33;;;31.50;68.30;;;;;;10287393;28;19983;-64
2022/07/24 11:53:30;;;;;;;2.42;1.33;;;31.60;70.10;;;;;;10298802;28;20109;-63
2022/07/24 11:58:38;;;;;;;1.45;1.20;;;32.00;69.10;;;;;;10296668;28;20047;-63
2022/07/24 12:03:52;;;;;;;2.13;1.60;;;32.20;66.00;;;;;;10278704;28;20061;-64
2022/07/24 12:09:04;;;;;;;1.23;1.13;;;32.00;65.80;;;;;;10286056;28;20137;-63
2022/07/24 12:14:17;;;;;;;2.55;1.50;;;32.20;66.50;;;;;;10293303;28;20125;-64
2022/07/24 12:19:22;;;;;;;2.75;1.55;;;31.70;66.30;;;;;;10289521;28;20477;-64
2022/07/24 12:24:24;;;;;;;2.58;1.40;;;31.60;67.20;;;;;;10291364;28;20050;-64
2022/07/24 12:29:42;;;;;;;2.85;1.30;;;32.00;68.30;;;;;;10284215;28;20042;-64
2022/07/24 12:34:46;;;;;;;2.38;1.77;;;31.80;65.20;;;;;;10291195;28;20066;-64
2022/07/24 12:40:08;;;;;;;2.75;1.75;;;32.10;65.20;;;;;;10292169;28;20109;-65
2022/07/24 12:45:10;;;;;;;3.65;1.55;;;31.80;64.40;;;;;;10290573;28;20061;-64
2022/07/24 12:50:12;;;;;;;6.03;2.05;;;32.10;64.30;;;;;;10292428;28;20038;-64
2022/07/24 12:55:21;;;;;;;2.17;1.25;;;31.80;63.90;;;;;;10283193;28;20053;-64
2022/07/24 13:00:22;;;;;;;2.85;1.50;;;32.20;64.20;;;;;;10283834;28;20042;-64
2022/07/24 13:05:41;;;;;;;2.92;1.48;;;32.30;64.20;;;;;;10275623;28;20053;-64
2022/07/24 13:10:43;;;;;;;2.15;1.38;;;32.30;62.60;;;;;;10291393;28;20055;-63
2022/07/24 13:15:44;;;;;;;2.17;1.50;;;32.40;63.20;;;;;;10300863;28;20061;-63
2022/07/24 13:20:46;;;;;;;1.50;1.20;;;32.20;63.30;;;;;;10299493;28;20061;-63
2022/07/24 13:25:48;;;;;;;3.25;1.33;;;32.40;63.20;;;;;;10282527;28;20054;-64
2022/07/24 13:30:50;;;;;;;2.95;1.60;;;32.50;63.60;;;;;;10298846;28;20050;-64
2022/07/24 13:35:51;;;;;;;2.63;1.67;;;32.70;61.40;;;;;;10298071;28;20102;-64
2022/07/24 13:40:53;;;;;;;3.33;1.70;;;33.10;62.10;;;;;;10280467;28;20043;-64
2022/07/24 13:45:55;;;;;;;2.58;1.80;;;33.50;61.80;;;;;;10276881;28;20063;-64
2022/07/24 13:50:57;;;;;;;3.03;1.50;;;33.80;60.70;;;;;;10280005;28;20061;-64
2022/07/24 13:55:59;;;;;;;4.00;1.90;;;34.00;59.50;;;;;;10293976;28;20081;-65
2022/07/24 14:01:01;;;;;;;2.03;1.45;;;34.00;59.20;;;;;;10274325;28;20122;-65
2022/07/24 14:06:03;;;;;;;3.63;1.60;;;33.50;58.30;;;;;;10275331;28;20054;-64
2022/07/24 14:11:05;;;;;;;2.13;1.60;;;34.00;59.70;;;;;;10293359;28;20046;-64
2022/07/24 14:16:07;;;;;;;3.28;1.88;;;33.70;59.10;;;;;;10303837;28;20062;-64
2022/07/24 14:21:09;;;;;;;3.25;1.73;;;33.60;58.10;;;;;;10298456;28;20457;-63
2022/07/24 14:26:11;;;;;;;2.58;2.00;;;33.90;56.80;;;;;;10308779;28;20042;-63
2022/07/24 14:31:13;;;;;;;2.47;1.98;;;34.10;56.30;;;;;;10300127;28;20054;-64
2022/07/24 14:36:19;;;;;;;2.00;1.73;;;34.60;56.60;;;;;;10310639;28;20053;-64
2022/07/24 14:41:21;;;;;;;3.33;2.15;;;34.20;56.30;;;;;;10306989;28;20868;-65
2022/07/24 14:46:23;;;;;;;2.22;2.03;;;34.00;56.00;;;;;;10297006;28;20600;-65
2022/07/24 14:51:24;;;;;;;5.45;1.60;;;34.30;56.40;;;;;;10303756;28;20572;-64
2022/07/24 14:56:26;;;;;;;2.00;1.20;;;35.10;58.00;;;;;;10304983;28;20053;-64
2022/07/24 15:01:28;;;;;;;3.88;1.65;;;35.40;59.70;;;;;;10301106;28;20137;-64
2022/07/24 15:06:38;;;;;;;2.05;1.60;;;35.00;61.40;;;;;;10277788;28;20038;-64
2022/07/24 15:11:39;;;;;;;1.45;1.30;;;34.80;58.00;;;;;;10269070;28;20043;-63
2022/07/24 15:16:41;;;;;;;2.25;1.40;;;34.70;59.30;;;;;;10271239;28;20062;-64
2022/07/24 15:21:43;;;;;;;3.55;1.30;;;35.80;57.40;;;;;;10271738;28;20058;-64
2022/07/24 15:26:45;;;;;;;6.07;1.27;;;35.10;58.10;;;;;;10269933;28;20055;-64
2022/07/24 15:31:47;;;;;;;2.03;1.67;;;35.70;57.40;;;;;;10267345;28;20066;-64
2022/07/24 15:36:49;;;;;;;2.70;1.42;;;36.10;57.20;;;;;;10289749;28;20161;-64
2022/07/24 15:41:51;;;;;;;2.47;1.60;;;36.30;56.80;;;;;;10269132;28;20069;-63
2022/07/24 15:46:54;;;;;;;2.08;1.27;;;36.10;55.70;;;;;;10271926;28;20534;-65
2022/07/24 15:51:55;;;;;;;2.10;1.60;;;36.70;56.60;;;;;;10271053;28;20047;-64
2022/07/24 15:56:57;;;;;;;2.63;1.45;;;36.70;57.30;;;;;;10269858;28;20054;-64
2022/07/24 16:01:59;;;;;;;2.55;1.27;;;36.20;55.80;;;;;;10267600;28;20490;-63
2022/07/24 16:07:01;;;;;;;1.65;1.52;;;36.00;55.90;;;;;;10281764;28;20050;-63
2022/07/24 16:12:03;;;;;;;3.17;1.20;;;35.70;56.10;;;;;;10302531;28;20046;-64
2022/07/24 16:17:05;;;;;;;5.70;1.20;;;35.30;56.50;;;;;;10275841;28;20045;-64
2022/07/24 16:22:07;;;;;;;1.42;1.25;;;35.30;56.40;;;;;;10288654;28;20049;-64
2022/07/24 16:27:09;;;;;;;1.92;1.42;;;35.70;56.10;;;;;;10289373;28;20054;-64
2022/07/24 16:32:10;;;;;;;1.52;1.27;;;35.30;56.40;;;;;;10288566;28;20062;-63
2022/07/24 16:37:12;;;;;;;1.20;1.10;;;34.70;56.20;;;;;;10290224;28;20054;-63
2022/07/24 16:42:14;;;;;;;2.22;1.10;;;34.80;56.20;;;;;;10285779;28;20390;-63
2022/07/24 16:47:17;;;;;;;2.10;1.45;;;35.10;55.70;;;;;;10297430;28;20050;-63
2022/07/24 16:52:21;;;;;;;2.30;1.30;;;35.50;55.90;;;;;;10268616;28;20042;-63
2022/07/24 16:57:43;;;;;;;1.50;1.38;;;35.30;54.60;;;;;;10294340;28;20480;-63
2022/07/24 17:02:44;;;;;;;2.47;0.95;;;35.30;54.40;;;;;;10287628;28;20119;-63
2022/07/24 17:07:47;;;;;;;2.05;1.13;;;34.90;52.60;;;;;;10283251;28;20417;-64
2022/07/24 17:12:48;;;;;;;4.15;1.27;;;34.40;54.40;;;;;;10296197;28;20054;-65
2022/07/24 17:18:03;;;;;;;2.67;1.40;;;34.10;53.70;;;;;;10278944;28;20059;-64
2022/07/24 17:23:07;;;;;;;2.65;1.25;;;34.50;53.60;;;;;;10278194;28;20050;-64
2022/07/24 17:28:11;;;;;;;1.25;1.10;;;34.20;53.30;;;;;;10286827;28;20050;-64
2022/07/24 17:33:13;;;;;;;2.22;1.40;;;34.00;52.80;;;;;;10292058;28;20054;-64
2022/07/24 17:38:18;;;;;;;1.65;1.00;;;34.40;52.20;;;;;;10279270;28;20046;-65
2022/07/24 17:43:20;;;;;;;;;;;33.90;52.90;;;;;;10296026;28;20046;-64
2022/07/24 17:48:21;;;;;;;1.67;1.20;;;33.70;52.90;;;;;;10295676;28;19926;-64
2022/07/24 17:53:23;;;;;;;1.63;1.25;;;33.60;52.80;;;;;;10289470;28;20051;-64
2022/07/24 17:58:25;;;;;;;1.63;1.23;;;33.70;53.70;;;;;;10280762;28;20054;-63
2022/07/24 18:03:26;;;;;;;1.73;1.15;;;33.60;52.80;;;;;;10291141;28;20043;-63
2022/07/24 18:08:28;;;;;;;3.45;1.25;;;33.10;53.50;;;;;;10275207;28;21070;-63
2022/07/24 18:13:30;;;;;;;1.35;1.20;;;33.00;53.50;;;;;;10264595;28;20063;-64
2022/07/24 18:18:32;;;;;;;2.80;1.10;;;32.60;54.50;;;;;;10256723;28;20059;-63
2022/07/24 18:23:34;;;;;;;1.80;1.13;;;32.40;55.00;;;;;;10260619;28;20055;-64
2022/07/24 18:28:36;;;;;;;2.40;1.33;;;32.00;55.60;;;;;;10256157;28;20058;-64
2022/07/24 18:33:38;;;;;;;2.00;1.10;;;31.80;56.00;;;;;;10249403;28;20047;-63
2022/07/24 18:38:40;;;;;;;2.83;1.20;;;31.60;56.60;;;;;;10262940;28;20477;-64
2022/07/24 18:43:42;;;;;;;4.32;2.15;;;31.30;57.10;;;;;;10256844;28;20050;-65
2022/07/24 18:48:44;;;;;;;4.75;1.65;;;31.10;57.50;;;;;;10257043;28;20066;-64
2022/07/24 18:53:47;;;;;;;3.03;1.50;;;30.90;58.70;;;;;;10268661;28;20134;-64
2022/07/24 18:58:48;;;;;;;2.95;1.65;;;30.60;61.60;;;;;;10248907;28;20522;-64
2022/07/24 19:03:50;;;;;;;5.35;2.35;;;30.30;63.10;;;;;;10269488;28;20110;-65
2022/07/24 19:08:52;;;;;;;5.97;3.55;;;30.10;64.20;;;;;;10257045;28;20138;-64
2022/07/24 19:13:54;;;;;;;6.57;4.07;;;29.80;65.00;;;;;;10268197;28;20497;-64
2022/07/24 19:18:55;;;;;;;6.13;2.80;;;29.50;66.00;;;;;;10268070;28;20046;-65
2022/07/24 19:23:57;;;;;;;3.25;2.45;;;29.30;67.30;;;;;;10261119;28;20039;-61
2022/07/24 19:28:59;;;;;;;6.35;3.00;;;29.00;68.90;;;;;;10267769;28;20071;-61
2022/07/24 19:34:02;;;;;;;9.13;4.82;;;28.70;69.70;;;;;;10255933;28;20076;-60
2022/07/24 19:39:04;;;;;;;3.97;3.30;;;28.40;69.80;;;;;;10267316;28;20050;-60
2022/07/24 19:44:06;;;;;;;3.05;2.28;;;28.10;69.20;;;;;;10272417;28;20051;-61
2022/07/24 19:49:09;;;;;;;7.95;4.53;;;27.80;69.70;;;;;;10259338;28;20477;-61
2022/07/24 19:54:11;;;;;;;4.22;2.47;;;27.40;70.30;;;;;;10266065;28;20103;-61
2022/07/24 19:59:13;;;;;;;5.55;1.83;;;27.10;71.50;;;;;;10273808;28;20046;-61
2022/07/24 20:04:14;;;;;;;8.13;3.83;;;26.90;71.90;;;;;;10270952;28;20537;-69
2022/07/24 20:09:16;;;;;;;5.38;3.30;;;26.70;73.40;;;;;;10272526;28;20556;-69
2022/07/24 20:14:19;;;;;;;3.90;2.60;;;26.50;74.60;;;;;;10296982;28;20540;-69
2022/07/24 20:19:21;;;;;;;2.95;1.77;;;26.30;76.00;;;;;;10286544;28;20041;-69
2022/07/24 20:24:22;;;;;;;5.18;2.40;;;26.10;76.90;;;;;;10305342;28;20097;-69
2022/07/24 20:29:24;;;;;;;3.17;1.80;;;25.90;77.20;;;;;;10283078;28;20081;-69
2022/07/24 20:34:26;;;;;;;3.47;1.80;;;25.70;78.40;;;;;;10285614;28;20101;-68
2022/07/24 20:39:27;;;;;;;6.78;1.90;;;25.40;79.70;;;;;;10275076;28;20050;-66
2022/07/24 20:44:30;;;;;;;2.85;1.60;;;25.30;80.80;;;;;;10284718;28;20074;-63
2022/07/24 20:49:32;;;;;;;10.18;2.20;;;25.00;82.20;;;;;;10280874;28;20498;-63
2022/07/24 20:54:34;;;;;;;4.35;2.00;;;24.80;83.70;;;;;;10280189;28;20076;-64
2022/07/24 20:59:36;;;;;;;5.65;2.13;;;24.80;84.80;;;;;;10291929;28;20057;-63
2022/07/24 21:04:40;;;;;;;3.85;2.53;;;24.60;86.70;;;;;;10279303;28;20051;-63
2022/07/24 21:09:42;;;;;;;12.43;3.15;;;24.50;87.30;;;;;;10295515;28;20394;-63
2022/07/24 21:14:44;;;;;;;4.00;2.17;;;24.40;88.40;;;;;;10281879;28;20062;-63
2022/07/24 21:19:45;;;;;;;3.67;2.40;;;24.30;88.70;;;;;;10272282;28;20069;-62
2022/07/24 21:24:48;;;;;;;5.60;2.60;;;24.20;89.90;;;;;;10290616;28;20182;-61
2022/07/24 21:29:50;;;;;;;5.20;2.22;;;24.10;90.90;;;;;;10282507;28;20594;-62
2022/07/24 21:34:53;;;;;;;8.20;2.17;;;23.70;91.40;;;;;;10282127;28;20051;-62
2022/07/24 21:39:55;;;;;;;3.45;2.00;;;23.70;92.10;;;;;;10303157;28;20065;-62
2022/07/24 21:44:57;;;;;;;4.03;2.03;;;23.50;93.20;;;;;;10305079;28;20054;-62
2022/07/24 21:49:59;;;;;;;8.00;2.10;;;23.40;94.00;;;;;;10292781;28;20227;-62
2022/07/24 21:55:00;;;;;;;4.38;2.67;;;23.20;93.90;;;;;;10298763;28;20048;-62
2022/07/24 22:00:06;;;;;;;4.28;2.10;;;23.10;94.60;;;;;;10295010;28;20038;-62
2022/07/24 22:05:11;;;;;;;5.95;2.22;;;23.10;95.50;;;;;;10285547;28;20050;-62
2022/07/24 22:10:13;;;;;;;4.50;2.28;;;23.00;96.20;;;;;;10262999;28;20414;-62
2022/07/24 22:15:14;;;;;;;4.82;2.53;;;22.80;96.50;;;;;;10261146;28;20055;-62
2022/07/24 22:20:16;;;;;;;3.15;2.42;;;22.70;97.00;;;;;;10248960;28;20059;-62
2022/07/24 22:25:18;;;;;;;4.25;2.28;;;22.60;97.50;;;;;;10263300;28;20109;-62
2022/07/24 22:30:20;;;;;;;2.90;2.20;;;22.50;97.90;;;;;;10243274;28;20051;-62
2022/07/24 22:35:22;;;;;;;4.50;2.38;;;22.40;98.10;;;;;;10257512;28;20095;-62
2022/07/24 22:40:23;;;;;;;3.15;1.90;;;22.30;98.50;;;;;;10272492;28;20560;-62
2022/07/24 22:45:25;;;;;;;5.25;2.10;;;22.10;98.80;;;;;;10272866;28;20549;-62
2022/07/24 22:50:27;;;;;;;6.40;2.42;;;22.10;99.20;;;;;;10277176;28;20105;-62
2022/07/24 22:55:29;;;;;;;4.57;2.83;;;22.00;99.80;;;;;;10269955;28;20058;-62
2022/07/24 23:00:32;;;;;;;4.68;2.55;;;21.90;99.90;;;;;;10255642;28;20419;-62
2022/07/24 23:05:33;;;;;;;5.03;1.80;;;21.80;99.90;;;;;;10258216;28;20039;-62
2022/07/24 23:10:35;;;;;;;6.45;2.83;;;21.80;99.90;;;;;;10264513;28;20101;-62
2022/07/24 23:15:37;;;;;;;3.78;2.65;;;21.70;99.90;;;;;;10268544;28;20043;-62
2022/07/24 23:20:39;;;;;;;4.68;2.47;;;21.60;99.90;;;;;;10253632;28;20062;-62
2022/07/24 23:25:40;;;;;;;13.15;3.08;;;21.60;99.90;;;;;;10267767;28;20123;-62
2022/07/24 23:30:42;;;;;;;4.80;3.25;;;21.50;99.90;;;;;;10269187;28;20490;-62
2022/07/24 23:35:44;;;;;;;3.67;2.47;;;21.40;99.90;;;;;;10243584;28;20442;-62
2022/07/24 23:40:46;;;;;;;4.82;2.67;;;21.40;99.90;;;;;;10247198;28;20056;-62
2022/07/24 23:45:48;;;;;;;4.05;2.28;;;21.30;99.90;;;;;;10249100;28;20055;-64
2022/07/24 23:50:50;;;;;;;7.85;2.72;;;21.20;99.90;;;;;;10253464;28;20066;-61
2022/07/24 23:55:51;;;;;;;4.78;2.50;;;21.20;99.90;;;;;;10270802;28;20442;-61
